SBIL Informações do Aeroporto

Informações da Pista
Pista 11 Comprimento 5174 ft Largura 148 ft
Elevação 0 ft Limite 0 ft Heading 0
Pista 29 Comprimento 5174 ft Largura 148 ft
Elevação 0 ft Limite 0 ft Heading 0
Frequências do Aeroporto
Tipo APP Nome APP Frequência 120.1 MHZ
Navaids do Aeroporto
Tipo NDB Nome Ilheus Frequência 305 KHZ
Informações meteorológicas do aeroporto e NOTAM
ADDS - METARS form results

(2232 UTC 25 January 2021)
Data provider http://aviationweather.gov/metar/data/
 
Forecast for: SBIL (ILHEUS AIRPORT , BR)
Text: TAF SBIL 251600Z 2518/2606 15007KT 9999 SCT023TX28/2518Z TN23/2605Z
Forecast period: 1800 UTC 25 January 2021 to 0600 UTC 26 January 2021
Forecast type: FROM: standard forecast or significant change
Winds: from the SSE (150 degrees) at 8 MPH (7 knots; 3.6 m/s)
Visibility: 6 or more miles (10+ km)
Ceiling: unknown
Clouds: missing
Weather: no significant weather forecast for this period
Text: TEMPO 2518/2523 SCT023 FEW030TCU RMK PGQ
Forecast period: 1800 to 2300 UTC 25 January 2021
Forecast type: TEMPORARY: The following changes expected for less than half the time period
Visibility: missing
Ceiling: at least 12,000 feet AGL
Clouds: scattered clouds at 2300 feet AGL
few clouds at 3000 feet AGL
Weather: no significant weather forecast for this period